Archival Weather

Norman Y Mineta San Jose Intl

San Jose, California (KSJC)

Report from: Sunday, January 28, 2024 2:53 PM PST
Current time: Monday, June 24, 2024 2:05 AM PDT

Current weather – Weather history – Daily summaries
Weather forecast

Temperature21.1°C (70.0°F)
Dew point10.6°C (51.1°F)
Winds Calm
Visibility10 mi. (16.1 km)
Clouds Few clouds 6,000 ft. (1,829 m)
Ceiling: Broken clouds 12,000 ft. (3,658 m)
Broken clouds 17,000 ft. (5,182 m)
Altimeter30.10 in.Hg (1019 mB)
Relative humidity51 %
Density altitude690 ft. (210 m)
Sea-level pressure101.9 kPa (1019 mB, 30.10 in.Hg)
Remarks Automated weather observing station with precipitation discriminator
Flight conditions Visual Meteorological Conditions
Raw dataKSJC 282253Z 00000KT 10SM FEW060 BKN120 BKN170 21/11 A3010 RMK AO2 SLP193 T02110106
An error has occurred. This application may no longer respond until reloaded. Reload 🗙